Lea County Regional Airport
KHOB : now visible

Airfield :











YOU CAN JOIN US ON...

 
LOGIN :

Register | Disclaimer

   EN    FR    IT 

 









Legend :    VFR   Marginal VFR   IFR   Intensive IFR   Very Intensive IFR
Visi :
Ceiling :
>= 8 km
>= 3000ft
5 to 8 km
1000 to 3000 ft
1500m to 5 km
500 to 1000 ft
800 to 1500m
200 to 500 ft
< 800m
< 200 ft
Symbols :   Thunderstorms  Fog  Heavy snow  Heavy precipitations  Wind > 20 kt







- Airport Elevation : 3661 ft


KHOB - Lea County Regional

CURRENT METAR :
  • 210435Z AUTO 22004KT 10SM VCTS SCT037 BKN046 OVC110 24/17 A3002 RMK AO2 LTG DSNT N

EXPIRED METARs :
  • 210415Z AUTO 22009KT 10SM VCTS BKN095 OVC110 24/18 A3002 RMK AO2 LTG DSNT N AND NW
  • 210355Z AUTO 16012G18KT 10SM VCTS BKN100 24/19 A3001 RMK AO2 LTG DSNT SW-N
  • 210335Z AUTO 14013G18KT 10SM VCTS OVC110 24/19 A3000 RMK AO2 LTG DSNT SW AND NW
  • 210315Z AUTO 14010KT 10SM BKN110 24/19 A3000 RMK AO2 LTG DSNT SW
  • 210255Z AUTO 15011KT 10SM OVC120 24/19 A2998 RMK AO2 LTG DSNT SW AND W
  • 210235Z AUTO 17010G16KT 10SM FEW025 FEW055 OVC120 24/19 A2998 RMK AO2
  • 210215Z AUTO 18014G20KT 10SM FEW018 SCT055 BKN080 25/19 A2997 RMK AO2
  • 210155Z AUTO 18015KT 10SM VCTS BKN080 BKN090 26/17 A2995 RMK AO2 LTG DSNT E AND S

TAF KHOB
Valid from the 21 at 00:00 until the 22 at 00:00 UTC


202324Z 2100/2124 17010KT P6SM SCT080 BKN150
FM211200 15009KT P6SM OVC020
TEMPO 2112/2116 VRB20G30KT 5SM TSRA BKN010CB
No reported NOTAMs for that airfield.



MET'MAP, your aeronautical weather chart ! - Copyright ORBIFLY December 2007 - Disclaimer

ORBIFLY MET'MAP TEAM :

Programming & Development : Alexandra Zaïnal
Concept & Development : Baudouin d'Aumeries
Co-Development & Prog : Marc-Olivier Méhu
Technical & hardware support : Manuel Goepfert

Contact : metmap@orbifly.com




SOURCES & CREDITS :

   NOAA       Earth
Advisory